Time;durP1;ratioP1;P1;durP2;ratioP2;P2;SDS_P1;SDS_P2;PMS_P1;PMS_P2;Temp;Humidity;BMP_temperature;BMP_pressure;BME280_temperature;BME280_humidity;BME280_pressure;Samples;Min_cycle;Max_cycle;Signal;HPM_P1;HPM_P2
2022/01/25 00:15:26;;;;;;;30.27;18.50;;;;;;;1.46;76.79;98124.66;5023812;28;20057;-81
2022/01/25 00:26:34;;;;;;;27.70;17.38;;;;;;;1.81;78.74;98129.53;5008076;28;20057;-81
2022/01/25 00:29:08;;;;;;;25.25;15.32;;;;;;;1.85;79.02;98125.84;5028739;28;20058;-82
2022/01/25 00:31:39;;;;;;;26.98;15.95;;;;;;;1.88;78.86;98125.69;5025206;28;20562;-84
2022/01/25 00:34:07;;;;;;;27.58;15.98;;;;;;;1.90;78.57;98110.16;5024532;28;20104;-81
2022/01/25 00:36:37;;;;;;;24.60;15.25;;;;;;;1.88;76.65;98123.13;5027021;28;20052;-83
2022/01/25 00:39:06;;;;;;;24.90;14.93;;;;;;;1.71;74.36;98124.09;5025744;28;20049;-82
2022/01/25 00:41:34;;;;;;;21.88;14.43;;;;;;;1.54;74.15;98125.06;5032822;28;20085;-82
2022/01/25 00:44:02;;;;;;;24.50;15.57;;;;;;;1.43;74.38;98128.25;5039201;28;20060;-83
2022/01/25 00:46:30;;;;;;;26.55;16.75;;;;;;;1.46;76.75;98127.22;5039550;28;20073;-82
2022/01/25 00:49:02;;;;;;;23.85;16.63;;;;;;;1.55;77.87;98134.44;5039663;28;20054;-82
2022/01/25 00:52:04;;;;;;;25.37;15.10;;;;;;;1.61;77.20;98138.38;5039355;28;20068;-82
2022/01/25 00:54:40;;;;;;;24.23;15.00;;;;;;;1.63;76.38;98134.81;5035810;28;20049;-81
2022/01/25 00:57:09;;;;;;;24.33;15.95;;;;;;;1.59;77.26;98135.06;5028819;28;20496;-83
2022/01/25 00:59:38;;;;;;;24.75;14.65;;;;;;;1.60;77.97;98135.00;5026598;28;20132;-81
2022/01/25 01:02:10;;;;;;;23.23;14.88;;;;;;;1.58;77.25;98136.84;5028848;28;20060;-82
2022/01/25 01:04:41;;;;;;;24.20;15.20;;;;;;;1.60;77.57;98145.28;5024471;28;20058;-82
2022/01/25 01:07:12;;;;;;;25.58;15.95;;;;;;;1.65;78.30;98151.00;5025708;28;20060;-82
2022/01/25 01:09:48;;;;;;;25.33;16.98;;;;;;;1.68;78.38;98146.59;5025712;28;20088;-81
2022/01/25 01:12:35;;;;;;;24.92;15.52;;;;;;;1.62;76.04;98143.47;5038523;28;20050;-81
2022/01/25 01:15:10;;;;;;;25.40;15.68;;;;;;;1.51;74.64;98143.25;5038085;28;20054;-82
2022/01/25 01:29:14;;;;;;;32.60;18.90;;;;;;;1.35;73.96;98135.53;5004669;28;20051;-84
2022/01/25 01:32:00;;;;;;;32.78;18.88;;;;;;;1.28;74.05;98139.38;5002640;28;20133;-83
2022/01/25 01:40:33;;;;;;;32.35;17.35;;;;;;;1.13;74.88;98143.63;5043789;28;20057;-81
2022/01/25 01:43:14;;;;;;;32.38;18.00;;;;;;;1.14;75.94;98135.03;5041547;28;20049;-82
2022/01/25 01:45:51;;;;;;;29.75;17.42;;;;;;;1.13;75.06;98143.63;5065747;22;20059;-83
2022/01/25 01:48:26;;;;;;;29.35;17.40;;;;;;;1.04;74.54;98146.72;5044570;28;20049;-84
2022/01/25 01:50:55;;;;;;;28.15;16.70;;;;;;;0.94;74.65;98142.97;5043952;28;20057;-85
2022/01/25 01:53:22;;;;;;;31.35;17.33;;;;;;;0.84;75.22;98140.09;5044085;28;20423;-83
2022/01/25 01:55:50;;;;;;;29.15;16.05;;;;;;;0.82;75.87;98142.75;5042664;28;20072;-84
2022/01/25 01:58:19;;;;;;;31.08;17.45;;;;;;;0.77;75.41;98139.59;5042924;28;20072;-85
2022/01/25 02:00:49;;;;;;;31.23;18.02;;;;;;;0.71;75.49;98142.50;5043337;28;20052;-83
2022/01/25 02:03:18;;;;;;;31.13;17.30;;;;;;;0.69;75.98;98143.50;5043290;28;20052;-83
2022/01/25 02:05:46;;;;;;;30.20;16.20;;;;;;;0.65;75.59;98142.81;5043082;28;20057;-87
2022/01/25 02:08:14;;;;;;;33.90;18.73;;;;;;;0.63;75.71;98142.06;5042790;28;20047;-83
2022/01/25 02:10:42;;;;;;;35.60;19.05;;;;;;;0.62;75.71;98140.41;5042603;28;20053;-88
2022/01/25 02:13:11;;;;;;;30.15;17.35;;;;;;;0.54;75.58;98137.41;5042513;28;20061;-84
2022/01/25 02:15:45;;;;;;;30.88;16.85;;;;;;;0.40;75.69;98133.84;5042349;28;20057;-84
2022/01/25 02:23:46;;;;;;;33.78;16.88;;;;;;;0.08;75.74;98127.00;5045221;28;20068;-83
2022/01/25 02:26:15;;;;;;;35.60;17.38;;;;;;;0.03;76.32;98131.53;5044487;28;20060;-85
2022/01/25 02:28:44;;;;;;;32.35;17.65;;;;;;;-0.06;76.03;98113.13;5045652;28;20054;-83
2022/01/25 02:31:15;;;;;;;30.20;16.52;;;;;;;-0.14;76.50;98112.69;5045162;28;20046;-83
2022/01/25 02:33:44;;;;;;;31.55;17.98;;;;;;;-0.16;76.73;98116.25;5044373;28;20049;-83
2022/01/25 02:36:17;;;;;;;27.17;16.20;;;;;;;-0.16;77.55;98111.09;5043869;28;20053;-84
2022/01/25 02:38:44;;;;;;;29.90;16.23;;;;;;;-0.19;76.72;98114.66;5043345;28;20045;-82
2022/01/25 02:41:12;;;;;;;28.45;15.68;;;;;;;-0.20;77.10;98115.56;5043262;28;20483;-84
2022/01/25 02:43:43;;;;;;;31.38;16.48;;;;;;;-0.25;76.45;98109.84;5043082;28;20053;-84
2022/01/25 02:48:29;;;;;;;29.33;16.10;;;;;;;-0.28;77.27;98108.25;5043136;28;20050;-82
2022/01/25 02:49:09;;;;;;;36.10;18.17;;;;;;;-0.28;76.86;98108.25;5043217;28;20059;-85
2022/01/25 02:51:40;;;;;;;29.08;15.57;;;;;;;-0.36;76.84;98105.25;5042957;28;20049;-83
2022/01/25 02:54:08;;;;;;;29.90;15.88;;;;;;;-0.47;76.63;98095.53;5042839;28;20053;-84
2022/01/25 02:56:39;;;;;;;30.55;15.48;;;;;;;-0.52;77.05;98094.09;5041483;28;20076;-85
2022/01/25 02:59:08;;;;;;;33.38;17.30;;;;;;;-0.57;77.70;98091.75;5041892;28;20419;-83
2022/01/25 03:01:38;;;;;;;28.10;15.82;;;;;;;-0.57;77.85;98088.34;5041706;28;20049;-84
2022/01/25 03:04:08;;;;;;;27.08;15.00;;;;;;;-0.63;77.47;98084.38;5041020;28;20103;-85
2022/01/25 03:06:36;;;;;;;27.00;15.15;;;;;;;-0.61;77.93;98087.69;5041402;28;20057;-83
2022/01/25 03:09:06;;;;;;;27.33;15.15;;;;;;;-0.59;78.11;98083.34;5041143;28;20053;-84
2022/01/25 03:11:34;;;;;;;28.88;16.13;;;;;;;-0.60;78.18;98089.34;5041525;28;20057;-84
2022/01/25 03:14:06;;;;;;;26.98;15.30;;;;;;;-0.63;78.35;98082.63;5041141;28;20053;-83
2022/01/25 03:16:40;;;;;;;26.40;14.07;;;;;;;-0.66;77.73;98082.81;5041267;28;20049;-84
2022/01/25 03:19:31;;;;;;;27.02;14.77;;;;;;;-0.67;78.25;98091.38;5040260;28;20570;-82
2022/01/25 03:21:59;;;;;;;27.05;16.27;;;;;;;-0.67;78.12;98090.56;5040127;28;20055;-85
2022/01/25 03:24:29;;;;;;;28.35;15.13;;;;;;;-0.63;78.85;98092.06;5039646;28;20056;-83
2022/01/25 03:26:57;;;;;;;29.08;15.57;;;;;;;-0.60;78.85;98102.16;5039375;28;20061;-82
2022/01/25 03:29:24;;;;;;;24.58;13.73;;;;;;;-0.63;78.14;98092.06;5039888;28;20049;-86
2022/01/25 03:31:52;;;;;;;27.75;15.25;;;;;;;-0.65;78.62;98088.75;5039361;28;20052;-81
2022/01/25 03:34:20;;;;;;;27.95;15.40;;;;;;;-0.64;79.36;98080.97;5039910;28;20086;-83
2022/01/25 03:36:48;;;;;;;23.50;13.50;;;;;;;-0.63;78.72;98081.81;5040032;28;20057;-82
2022/01/25 03:39:16;;;;;;;26.88;15.60;;;;;;;-0.67;78.32;98085.44;5039807;28;20054;-83
2022/01/25 03:41:45;;;;;;;28.30;15.05;;;;;;;-0.67;79.47;98075.19;5039674;28;20072;-83
2022/01/25 03:44:16;;;;;;;23.98;14.30;;;;;;;-0.66;79.39;98081.94;5039611;28;20052;-83
2022/01/25 03:46:58;;;;;;;24.92;13.85;;;;;;;-0.68;78.49;98084.59;5039691;28;20049;-83
2022/01/25 03:52:12;;;;;;;27.02;13.70;;;;;;;-0.82;78.32;98081.06;5041615;28;20053;-82
2022/01/25 03:54:40;;;;;;;29.98;15.00;;;;;;;-0.84;78.56;98078.56;5045384;28;20047;-85
2022/01/25 03:57:10;;;;;;;23.17;13.25;;;;;;;-0.86;78.27;98075.25;5047152;28;20049;-84
2022/01/25 03:59:37;;;;;;;24.85;12.98;;;;;;;-0.92;78.22;98071.25;5046918;28;20049;-84
2022/01/25 04:02:05;;;;;;;27.23;14.57;;;;;;;-0.89;78.84;98063.41;5047246;28;20049;-83
2022/01/25 04:04:35;;;;;;;26.23;14.73;;;;;;;-0.87;79.13;98064.16;5045739;28;20507;-84
2022/01/25 04:07:08;;;;;;;25.27;13.25;;;;;;;-0.87;78.94;98066.72;5046517;28;20060;-85
2022/01/25 04:09:37;;;;;;;26.48;13.52;;;;;;;-0.85;79.45;98077.75;5047227;28;20059;-84
2022/01/25 04:12:06;;;;;;;24.80;12.80;;;;;;;-0.85;78.81;98067.50;5046716;28;20060;-84
2022/01/25 04:14:36;;;;;;;26.75;13.27;;;;;;;-0.90;78.42;98069.41;5045620;28;20041;-82
2022/01/25 04:17:07;;;;;;;21.27;12.50;;;;;;;-0.95;78.59;98063.69;5046569;28;20055;-83
2022/01/25 04:19:38;;;;;;;22.75;12.45;;;;;;;-0.95;79.03;98061.13;5045166;28;20550;-83
2022/01/25 04:25:11;;;;;;;27.70;14.52;;;;;;;-0.97;78.97;98067.25;5045055;28;20045;-82
2022/01/25 04:27:38;;;;;;;22.98;11.60;;;;;;;-1.01;79.02;98053.75;5044199;28;20053;-83
2022/01/25 04:30:09;;;;;;;25.75;12.95;;;;;;;-1.08;78.80;98063.47;5044025;28;20057;-83
2022/01/25 04:32:44;;;;;;;24.10;13.35;;;;;;;-1.13;78.97;98062.03;5044027;28;20054;-84
2022/01/25 04:35:27;;;;;;;25.38;12.30;;;;;;;-1.19;79.06;98075.13;5044996;28;20045;-83
2022/01/25 04:49:08;;;;;;;23.98;13.15;;;;;;;-1.34;78.91;98068.97;5043387;28;20056;-85
2022/01/25 04:51:50;;;;;;;26.50;13.02;;;;;;;-1.35;79.41;98065.59;5043020;28;20060;-83
2022/01/25 04:54:30;;;;;;;27.70;13.87;;;;;;;-1.35;79.64;98057.91;5044008;28;20053;-85
2022/01/25 04:57:08;;;;;;;29.85;13.20;;;;;;;-1.36;79.54;98056.25;5043104;28;20285;-83
2022/01/25 04:59:42;;;;;;;25.75;12.80;;;;;;;-1.31;80.14;98044.09;5042239;28;20131;-82
2022/01/25 05:02:16;;;;;;;26.38;12.77;;;;;;;-1.26;79.91;98041.31;5042311;28;20052;-83
2022/01/25 05:04:50;;;;;;;26.48;13.48;;;;;;;-1.27;79.35;98042.19;5042259;28;20052;-83
2022/01/25 05:07:29;;;;;;;31.25;14.00;;;;;;;-1.28;79.66;98037.97;5041689;28;20045;-84
2022/01/25 05:09:58;;;;;;;31.88;14.95;;;;;;;-1.25;79.39;98048.06;5041724;28;20053;-83
2022/01/25 05:12:36;;;;;;;31.95;14.85;;;;;;;-1.21;80.09;98043.63;5041639;28;20056;-82
2022/01/25 05:15:28;;;;;;;30.25;13.70;;;;;;;-1.18;79.85;98040.91;5041763;28;20492;-83
2022/01/25 05:18:09;;;;;;;30.27;13.75;;;;;;;-1.16;80.07;98046.81;5048272;28;20049;-84
2022/01/25 05:23:22;;;;;;;28.90;13.48;;;;;;;-1.19;79.36;98052.91;5050144;28;20136;-84
2022/01/25 05:25:50;;;;;;;22.73;12.15;;;;;;;-1.18;79.59;98053.72;5045437;28;20057;-85
2022/01/25 05:28:18;;;;;;;22.42;11.48;;;;;;;-1.16;79.33;98059.59;5045917;28;20051;-88
2022/01/25 05:30:46;;;;;;;23.90;12.38;;;;;;;-1.15;79.81;98058.72;5043721;28;20048;-84
2022/01/25 05:33:14;;;;;;;25.33;11.55;;;;;;;-1.11;79.76;98060.22;5044477;28;20060;-87
2022/01/25 05:35:42;;;;;;;22.25;11.13;;;;;;;-1.09;79.40;98061.81;5048478;28;20053;-89
2022/01/25 05:38:10;;;;;;;26.55;12.85;;;;;;;-1.07;80.08;98056.63;5051477;28;20053;-83
2022/01/25 05:40:44;;;;;;;25.85;11.15;;;;;;;-0.98;80.60;98063.88;5044871;28;20055;-85
2022/01/25 05:46:01;;;;;;;24.05;11.75;;;;;;;-0.97;79.77;98073.19;5010863;28;20050;-82
2022/01/25 05:48:31;;;;;;;23.92;10.77;;;;;;;-1.06;79.57;98065.97;5044446;28;20060;-83
2022/01/25 05:51:00;;;;;;;21.65;10.65;;;;;;;-1.08;79.40;98070.31;5044178;28;20080;-84
2022/01/25 05:53:28;;;;;;;22.13;11.07;;;;;;;-1.09;79.90;98073.78;5043245;28;20054;-87
2022/01/25 05:55:55;;;;;;;23.35;11.80;;;;;;;-1.09;79.71;98066.13;5042542;28;20053;-83
2022/01/25 05:58:23;;;;;;;28.85;13.18;;;;;;;-1.11;79.85;98067.91;5042833;28;20053;-83
2022/01/25 06:00:52;;;;;;;28.55;13.93;;;;;;;-1.09;80.32;98068.69;5043280;28;20045;-84
2022/01/25 06:03:20;;;;;;;27.08;12.75;;;;;;;-1.10;79.98;98077.25;5042697;28;20140;-83
2022/01/25 06:05:49;;;;;;;25.10;12.30;;;;;;;-1.11;79.98;98078.97;5042176;28;20059;-87
2022/01/25 06:08:17;;;;;;;26.60;13.38;;;;;;;-1.15;79.55;98074.09;5042867;28;20054;-83
2022/01/25 06:10:44;;;;;;;27.88;13.00;;;;;;;-1.22;79.62;98070.97;5044145;28;20055;-84
2022/01/25 06:13:12;;;;;;;31.33;14.55;;;;;;;-1.25;79.61;98066.84;5043474;28;20050;-84
2022/01/25 06:15:40;;;;;;;27.23;13.20;;;;;;;-1.27;80.09;98066.09;5043497;28;20060;-81
2022/01/25 06:18:07;;;;;;;36.65;15.95;;;;;;;-1.24;80.51;98072.78;5042119;28;20061;-83
2022/01/25 06:20:35;;;;;;;29.15;13.68;;;;;;;-1.26;80.10;98065.16;5043333;28;20053;-82
2022/01/25 06:23:04;;;;;;;28.23;13.82;;;;;;;-1.31;80.21;98066.28;5043456;28;20060;-83
2022/01/25 06:25:34;;;;;;;26.50;13.70;;;;;;;-1.34;79.90;98072.38;5042659;28;20057;-84
2022/01/25 06:28:02;;;;;;;31.23;14.23;;;;;;;-1.36;79.98;98065.66;5042667;28;20056;-82
2022/01/25 06:30:31;;;;;;;28.77;13.65;;;;;;;-1.38;80.01;98068.28;5046919;28;20054;-83
2022/01/25 06:32:59;;;;;;;29.02;13.65;;;;;;;-1.35;80.99;98064.78;5044478;28;20057;-82
2022/01/25 06:35:29;;;;;;;30.10;14.82;;;;;;;-1.29;81.64;98072.16;5042077;28;20052;-83
2022/01/25 06:37:56;;;;;;;30.13;14.38;;;;;;;-1.27;80.77;98075.47;5022145;28;20053;-83
2022/01/25 06:40:25;;;;;;;34.58;16.25;;;;;;;-1.28;80.92;98074.66;5019554;28;20045;-82
2022/01/25 06:42:53;;;;;;;34.15;16.45;;;;;;;-1.25;81.40;98079.66;5019574;28;20424;-86
2022/01/25 06:45:23;;;;;;;29.70;13.30;;;;;;;-1.25;81.30;98079.66;5015433;28;20485;-87
2022/01/25 06:47:52;;;;;;;31.20;14.10;;;;;;;-1.18;81.40;98081.88;5015366;28;20053;-84
2022/01/25 06:50:23;;;;;;;34.83;16.90;;;;;;;-1.15;80.99;98089.44;5013734;28;20057;-85
2022/01/25 06:52:51;;;;;;;30.80;14.93;;;;;;;-1.14;80.85;98091.09;5015201;28;20058;-83
2022/01/25 06:55:39;;;;;;;30.23;14.27;;;;;;;-1.11;80.66;98093.53;5032889;28;20049;-83
2022/01/25 06:58:07;;;;;;;29.92;15.30;;;;;;;-1.12;80.37;98091.84;5030506;28;20061;-79
2022/01/25 07:00:35;;;;;;;28.92;13.80;;;;;;;-1.07;80.60;98100.16;5035014;28;20041;-82
2022/01/25 07:03:03;;;;;;;29.65;14.43;;;;;;;-1.05;80.30;98106.00;5032724;28;20076;-83
2022/01/25 07:05:31;;;;;;;25.95;13.43;;;;;;;-1.01;80.71;98101.59;5033572;28;20052;-79
2022/01/25 07:07:59;;;;;;;28.20;13.57;;;;;;;-0.99;80.30;98103.16;5032610;28;20545;-80
2022/01/25 07:10:27;;;;;;;29.95;14.65;;;;;;;-0.95;80.02;98107.25;5033279;28;20128;-80
2022/01/25 07:12:56;;;;;;;28.17;13.20;;;;;;;-0.92;79.84;98116.50;5033467;28;20053;-85
2022/01/25 07:15:23;;;;;;;25.60;12.98;;;;;;;-0.91;80.07;98119.00;5034404;28;20058;-80
2022/01/25 07:17:51;;;;;;;32.47;13.20;;;;;;;-0.90;79.58;98120.66;5033155;28;20056;-80
2022/01/25 07:20:18;;;;;;;26.15;13.65;;;;;;;-0.90;79.21;98118.09;5032904;28;20050;-82
2022/01/25 07:22:46;;;;;;;29.40;14.93;;;;;;;-0.88;79.68;98118.84;5033448;28;20045;-85
2022/01/25 07:25:14;;;;;;;26.92;14.45;;;;;;;-0.83;80.10;98121.22;5032793;28;20407;-80
2022/01/25 07:27:41;;;;;;;26.73;14.38;;;;;;;-0.84;79.63;98122.94;5035991;28;20060;-83
2022/01/25 07:30:11;;;;;;;28.38;13.40;;;;;;;-0.85;79.29;98117.91;5036897;28;20046;-83
2022/01/25 07:32:38;;;;;;;27.70;13.07;;;;;;;-0.80;79.44;98125.38;5037817;28;20053;-81
2022/01/25 07:35:08;;;;;;;26.80;13.93;;;;;;;-0.76;79.96;98126.88;5037088;28;20136;-80
2022/01/25 07:37:42;;;;;;;27.90;14.43;;;;;;;-0.74;79.28;98131.03;5038267;28;20133;-87
2022/01/25 07:40:15;;;;;;;24.23;13.38;;;;;;;-0.75;78.64;98123.41;5039654;28;20132;-83
2022/01/25 07:42:46;;;;;;;28.73;13.25;;;;;;;-0.74;78.95;98119.97;5037304;28;20049;-80
2022/01/25 07:45:35;;;;;;;32.60;14.45;;;;;;;-0.68;79.77;98120.50;5037709;28;20083;-79
2022/01/25 07:48:08;;;;;;;27.45;13.63;;;;;;;-0.62;79.32;98124.47;5038999;28;20419;-81
2022/01/25 07:50:38;;;;;;;26.67;13.65;;;;;;;-0.58;78.96;98120.84;5038923;28;20050;-79
2022/01/25 07:53:06;;;;;;;27.55;14.52;;;;;;;-0.57;78.85;98117.38;5038823;28;20046;-81
2022/01/25 07:55:35;;;;;;;30.20;13.32;;;;;;;-0.56;79.20;98113.09;5038341;28;20056;-81
2022/01/25 07:58:03;;;;;;;28.10;14.32;;;;;;;-0.54;79.01;98119.81;5037132;28;20511;-81
2022/01/25 08:00:32;;;;;;;22.30;12.02;;;;;;;-0.53;78.31;98115.50;5037979;28;20049;-80
2022/01/25 08:03:01;;;;;;;27.15;12.90;;;;;;;-0.54;78.42;98117.25;5038621;28;20140;-80
2022/01/25 08:05:44;;;;;;;25.75;13.27;;;;;;;-0.53;78.40;98116.31;5033099;28;20053;-77
2022/01/25 08:08:28;;;;;;;22.17;11.85;;;;;;;-0.53;77.86;98113.75;5037678;28;20060;-79
2022/01/25 08:10:58;;;;;;;21.25;12.15;;;;;;;-0.50;78.15;98113.63;5038130;28;20516;-79
2022/01/25 08:13:47;;;;;;;24.02;13.32;;;;;;;-0.47;78.21;98112.63;5031680;28;20067;-79
2022/01/25 08:16:33;;;;;;;25.95;13.13;;;;;;;-0.46;77.89;98099.75;5027320;28;20042;-78
2022/01/25 08:19:19;;;;;;;26.83;12.85;;;;;;;-0.44;78.16;98105.63;4995176;28;20070;-79
2022/01/25 08:22:04;;;;;;;36.38;14.30;;;;;;;-0.42;78.22;98105.53;4995966;28;20061;-79
2022/01/25 08:24:49;;;;;;;36.10;14.18;;;;;;;-0.42;77.65;98108.97;4995860;28;20085;-78
2022/01/25 08:27:24;;;;;;;29.48;14.00;;;;;;;-0.43;77.55;98103.91;4995125;28;20564;-81
2022/01/25 08:30:07;;;;;;;22.52;12.75;;;;;;;-0.41;77.40;98109.78;4994076;28;20133;-79
2022/01/25 08:32:48;;;;;;;27.30;12.45;;;;;;;-0.39;78.25;98110.53;4995914;28;20066;-81
2022/01/25 08:35:35;;;;;;;24.30;12.10;;;;;;;-0.34;78.00;98107.75;4994693;28;20082;-79
2022/01/25 08:38:29;;;;;;;22.20;11.88;;;;;;;-0.29;77.57;98105.75;4935155;29;20051;-78
2022/01/25 08:40:59;;;;;;;21.35;11.50;;;;;;;-0.23;77.61;98100.34;4937753;29;20545;-83
2022/01/25 08:43:34;;;;;;;24.15;12.15;;;;;;;-0.14;77.25;98101.59;4937829;29;20371;-86
2022/01/25 08:46:02;;;;;;;23.90;12.73;;;;;;;-0.07;76.85;98103.75;4938325;29;20135;-80
2022/01/25 08:48:46;;;;;;;20.77;10.70;;;;;;;-0.03;76.53;98092.44;4938153;29;20063;-83
2022/01/25 08:51:49;;;;;;;26.77;13.38;;;;;;;0.08;76.87;98098.75;4939534;29;20048;-84
2022/01/25 08:54:33;;;;;;;51.47;15.88;;;;;;;0.17;76.76;98096.53;4926729;29;20052;-82
2022/01/25 08:57:22;;;;;;;25.27;12.57;;;;;;;0.31;76.82;98105.28;4987190;28;20050;-83
2022/01/25 09:00:12;;;;;;;64.20;17.02;;;;;;;0.43;76.57;98098.66;4981670;28;20077;-80
2022/01/25 09:02:41;;;;;;;43.70;14.43;;;;;;;0.52;75.94;98103.28;4996588;28;20050;-83
2022/01/25 09:05:11;;;;;;;36.72;14.95;;;;;;;0.60;75.57;98106.28;4997141;28;20508;-85
2022/01/25 09:07:38;;;;;;;31.02;13.70;;;;;;;0.72;76.41;98109.91;4995383;28;20413;-81
2022/01/25 09:10:08;;;;;;;28.27;13.88;;;;;;;0.84;76.78;98106.69;4995895;28;20149;-80
2022/01/25 09:12:36;;;;;;;26.80;13.82;;;;;;;0.99;77.15;98105.03;4996047;28;20404;-83
2022/01/25 09:15:04;;;;;;;23.70;13.57;;;;;;;1.13;76.64;98099.94;5028199;28;20053;-88
2022/01/25 09:17:31;;;;;;;26.10;13.95;;;;;;;1.28;76.36;98103.41;5038236;28;20396;-86
2022/01/25 09:20:01;;;;;;;28.73;14.38;;;;;;;1.41;75.93;98113.81;5037558;28;20053;-81
2022/01/25 09:22:30;;;;;;;26.40;13.20;;;;;;;1.53;74.86;98117.41;5037049;28;20052;-84
2022/01/25 09:25:18;;;;;;;28.23;12.98;;;;;;;1.64;74.36;98121.06;5038436;28;20507;-82
2022/01/25 09:27:47;;;;;;;35.13;14.32;;;;;;;1.77;73.88;98115.19;5039302;28;20460;-77
2022/01/25 09:30:15;;;;;;;24.42;11.65;;;;;;;1.91;73.86;98101.53;5040205;28;20072;-82
2022/01/25 09:32:42;;;;;;;25.75;11.43;;;;;;;2.05;73.40;98102.34;5039874;28;20057;-81
2022/01/25 09:35:10;;;;;;;55.40;15.95;;;;;;;2.19;72.34;98100.72;5040042;28;20053;-81
2022/01/25 09:37:39;;;;;;;46.33;14.70;;;;;;;2.31;72.21;98105.09;5038587;28;20049;-79
2022/01/25 09:40:09;;;;;;;26.65;13.15;;;;;;;2.46;72.07;98099.00;5038897;28;20049;-78
2022/01/25 09:42:38;;;;;;;30.27;14.50;;;;;;;2.60;71.53;98095.59;5040253;28;20045;-80
2022/01/25 09:45:07;;;;;;;21.15;12.15;;;;;;;2.77;71.57;98094.53;5040078;28;20499;-79
2022/01/25 09:47:34;;;;;;;26.42;13.75;;;;;;;2.97;72.67;98100.19;5039710;28;20053;-84
2022/01/25 09:50:03;;;;;;;25.67;13.95;;;;;;;3.18;72.77;98101.41;5039820;28;20474;-78
2022/01/25 09:52:30;;;;;;;20.92;12.82;;;;;;;3.40;71.42;98105.19;5039365;28;20068;-82
2022/01/25 09:55:01;;;;;;;22.27;13.45;;;;;;;3.62;71.59;98109.75;5040057;28;20053;-79
2022/01/25 09:57:29;;;;;;;22.83;13.82;;;;;;;3.86;70.27;98102.16;5039246;28;20048;-79
2022/01/25 09:59:57;;;;;;;21.85;12.57;;;;;;;4.08;69.35;98107.50;5039930;28;20045;-79
2022/01/25 10:02:48;;;;;;;21.30;12.40;;;;;;;4.41;69.57;98113.06;5040409;28;20049;-79
2022/01/25 10:05:18;;;;;;;21.48;11.65;;;;;;;4.75;67.98;98111.56;5040390;28;20076;-79
2022/01/25 10:07:56;;;;;;;20.83;12.65;;;;;;;5.19;64.74;98104.97;5040909;28;20503;-83
2022/01/25 10:10:26;;;;;;;19.63;11.45;;;;;;;6.07;63.67;98106.31;5042244;28;20414;-79
2022/01/25 10:12:56;;;;;;;18.77;12.20;;;;;;;7.61;61.18;98111.44;5041998;28;20049;-79
2022/01/25 10:15:27;;;;;;;17.40;11.10;;;;;;;9.42;56.51;98100.31;5042562;28;20120;-81
2022/01/25 10:18:12;;;;;;;27.58;12.75;;;;;;;10.66;51.47;98106.34;5041023;28;20115;-78
2022/01/25 10:20:42;;;;;;;35.90;13.98;;;;;;;11.97;47.85;98098.91;5041134;28;20049;-78
2022/01/25 10:23:11;;;;;;;27.17;13.20;;;;;;;13.44;44.76;98097.81;5040531;28;20111;-79
2022/01/25 10:25:43;;;;;;;27.08;11.85;;;;;;;14.51;40.62;98093.22;5039898;28;20063;-80
2022/01/25 10:28:12;;;;;;;37.95;13.60;;;;;;;15.03;39.92;98097.94;5039392;28;20041;-79
2022/01/25 10:30:49;;;;;;;29.77;13.48;;;;;;;15.13;38.80;98097.72;5039416;28;20395;-79
2022/01/25 10:33:25;;;;;;;22.38;12.63;;;;;;;15.89;38.71;98095.19;5039782;28;20076;-77
2022/01/25 10:35:53;;;;;;;20.25;12.45;;;;;;;16.87;38.44;98091.50;5041987;28;20053;-81
2022/01/25 10:38:24;;;;;;;170.00;29.38;;;;;;;17.59;34.51;98087.97;5043397;28;20053;-81
2022/01/25 10:41:03;;;;;;;355.55;47.80;;;;;;;17.86;32.67;98088.19;5044426;28;20106;-79
2022/01/25 10:43:31;;;;;;;106.93;25.70;;;;;;;18.08;34.48;98079.25;5040890;28;20053;-78
2022/01/25 10:46:15;;;;;;;33.88;14.95;;;;;;;18.62;33.19;98076.88;5041136;28;20053;-77
2022/01/25 10:48:46;;;;;;;22.42;12.52;;;;;;;19.16;31.35;98081.34;5040787;28;20080;-78
2022/01/25 10:51:16;;;;;;;17.60;11.80;;;;;;;19.53;30.33;98079.19;5038498;28;20046;-76
2022/01/25 10:53:44;;;;;;;18.80;12.57;;;;;;;19.45;30.35;98071.41;5038647;28;20045;-77
2022/01/25 10:56:13;;;;;;;17.58;12.75;;;;;;;19.38;31.11;98068.78;5038729;28;20092;-77
2022/01/25 10:58:43;;;;;;;21.45;12.43;;;;;;;19.75;29.18;98083.28;5039749;28;20061;-78
2022/01/25 11:01:14;;;;;;;15.43;12.15;;;;;;;20.21;29.02;98078.16;5041712;28;20056;-78
2022/01/25 11:03:43;;;;;;;17.20;11.93;;;;;;;20.50;28.18;98075.00;5046364;28;20247;-76
2022/01/25 11:06:15;;;;;;;19.40;12.80;;;;;;;20.19;27.43;98074.88;5046467;28;20103;-80
2022/01/25 11:08:49;;;;;;;17.70;12.73;;;;;;;20.11;27.64;98079.34;5046521;28;20102;-79
2022/01/25 11:11:26;;;;;;;16.15;11.98;;;;;;;20.67;27.37;98074.56;5045582;28;20057;-80
2022/01/25 11:13:56;;;;;;;17.70;12.18;;;;;;;21.07;27.12;98069.06;5049237;28;20136;-77
2022/01/25 11:16:23;;;;;;;16.20;12.18;;;;;;;21.19;26.89;98067.38;5048032;28;20144;-77
2022/01/25 11:18:57;;;;;;;16.08;12.43;;;;;;;20.66;27.37;98070.28;5046783;28;20064;-77
2022/01/25 11:21:25;;;;;;;16.60;12.07;;;;;;;20.78;27.22;98068.59;5047509;28;20057;-78
2022/01/25 11:23:53;;;;;;;17.80;12.48;;;;;;;21.18;26.56;98065.72;5047686;28;20054;-78
2022/01/25 11:26:21;;;;;;;15.00;12.20;;;;;;;21.55;27.79;98061.41;5045117;28;20046;-78
2022/01/25 11:28:51;;;;;;;17.33;12.02;;;;;;;21.30;26.57;98060.56;5043165;28;20045;-78
2022/01/25 11:31:21;;;;;;;14.07;11.35;;;;;;;20.83;26.87;98058.16;5042890;28;20058;-78
2022/01/25 11:33:52;;;;;;;19.33;12.38;;;;;;;20.95;26.43;98064.44;5043729;28;20108;-77
2022/01/25 11:36:22;;;;;;;15.60;11.63;;;;;;;20.83;27.26;98050.19;5043558;28;20458;-78
2022/01/25 11:38:52;;;;;;;15.05;10.98;;;;;;;20.96;27.05;98044.00;5043637;28;20049;-79
2022/01/25 11:41:23;;;;;;;13.35;10.88;;;;;;;20.55;28.14;98043.38;5044930;28;20053;-78
2022/01/25 11:44:09;;;;;;;11.10;9.73;;;;;;;20.38;28.97;98047.53;5042465;28;20053;-80
2022/01/25 11:46:38;;;;;;;11.68;10.45;;;;;;;20.67;29.84;98040.91;5045265;28;20105;-77
2022/01/25 11:49:15;;;;;;;13.73;10.32;;;;;;;20.58;28.10;98042.97;5045894;28;20063;-78
2022/01/25 11:51:42;;;;;;;13.20;10.02;;;;;;;20.30;29.75;98040.59;5045724;28;20049;-78
2022/01/25 11:54:10;;;;;;;13.13;10.45;;;;;;;20.14;30.40;98047.16;5043766;28;20061;-79
2022/01/25 11:56:41;;;;;;;13.05;10.68;;;;;;;20.19;28.30;98048.38;5045597;28;20084;-79
2022/01/25 11:59:13;;;;;;;11.95;9.65;;;;;;;20.38;30.04;98043.03;5045726;28;20057;-78
2022/01/25 12:01:41;;;;;;;;;;;;;;;20.76;29.90;98044.13;5045595;28;20506;-79
2022/01/25 12:04:12;;;;;;;11.88;10.50;;;;;;;20.62;28.51;98039.91;5044249;28;19975;-77
2022/01/25 12:06:59;;;;;;;11.77;10.00;;;;;;;20.67;30.11;98050.69;5044005;28;20073;-77
2022/01/25 12:09:42;;;;;;;12.10;9.90;;;;;;;20.85;27.75;98047.34;5044205;28;20056;-77
2022/01/25 12:12:12;;;;;;;12.35;9.25;;;;;;;21.03;29.36;98049.28;5043095;28;20523;-78
2022/01/25 12:14:48;;;;;;;12.70;10.68;;;;;;;21.16;27.42;98054.50;5043702;28;20054;-79
2022/01/25 12:17:18;;;;;;;13.60;9.85;;;;;;;21.35;26.99;98050.09;5044626;28;20049;-79
2022/01/25 12:19:50;;;;;;;13.20;10.25;;;;;;;21.51;27.17;98046.13;5044280;28;20055;-79
2022/01/25 12:22:36;;;;;;;11.63;9.47;;;;;;;21.49;28.54;98041.03;5043346;28;20045;-77
2022/01/25 12:25:08;;;;;;;14.50;11.23;;;;;;;21.49;25.97;98045.53;5043077;28;20060;-80
2022/01/25 12:27:42;;;;;;;13.13;10.70;;;;;;;21.40;28.87;98043.09;5044159;28;20113;-79
2022/01/25 12:30:14;;;;;;;12.93;11.63;;;;;;;21.45;29.31;98036.38;5047731;28;20053;-78
2022/01/25 12:32:58;;;;;;;12.45;10.70;;;;;;;21.41;26.58;98041.31;5047715;28;20423;-78
2022/01/25 12:35:37;;;;;;;12.60;10.77;;;;;;;21.74;25.77;98030.41;5046825;28;20056;-78
2022/01/25 12:38:10;;;;;;;13.85;9.65;;;;;;;22.42;26.84;98026.06;5046843;28;20053;-80
2022/01/25 12:40:42;;;;;;;16.25;10.30;;;;;;;21.80;24.76;98026.06;5044894;28;20565;-78
2022/01/25 12:43:16;;;;;;;15.65;11.30;;;;;;;20.07;26.63;98014.59;5044691;28;20481;-79
2022/01/25 12:45:48;;;;;;;13.07;10.77;;;;;;;18.46;30.78;98014.63;5043548;28;20058;-77
2022/01/25 12:48:19;;;;;;;12.77;11.20;;;;;;;17.22;30.99;98010.72;5046668;28;20053;-79
2022/01/25 12:50:49;;;;;;;12.55;10.00;;;;;;;16.30;33.82;98007.91;5045625;28;20072;-77